sensor_id;sensor_type;location;lat;lon;timestamp;P1;durP1;ratioP1;P2;durP2;ratioP2
29550;SDS011;16488;52.396;10.696;2023-06-14T00:00:50;4.63;;;2.70;;
29550;SDS011;16488;52.396;10.696;2023-06-14T00:03:17;4.40;;;2.92;;
29550;SDS011;16488;52.396;10.696;2023-06-14T00:05:47;9.60;;;3.10;;
29550;SDS011;16488;52.396;10.696;2023-06-14T00:08:13;6.45;;;3.00;;
29550;SDS011;16488;52.396;10.696;2023-06-14T00:10:39;3.22;;;2.60;;
29550;SDS011;16488;52.396;10.696;2023-06-14T00:13:07;3.75;;;2.60;;
29550;SDS011;16488;52.396;10.696;2023-06-14T00:15:33;4.90;;;2.72;;
29550;SDS011;16488;52.396;10.696;2023-06-14T00:17:59;6.47;;;2.67;;
29550;SDS011;16488;52.396;10.696;2023-06-14T00:22:55;4.28;;;2.70;;
29550;SDS011;16488;52.396;10.696;2023-06-14T00:25:24;6.10;;;2.80;;
29550;SDS011;16488;52.396;10.696;2023-06-14T00:27:50;8.60;;;2.90;;
29550;SDS011;16488;52.396;10.696;2023-06-14T00:30:16;5.10;;;3.00;;
29550;SDS011;16488;52.396;10.696;2023-06-14T00:32:42;4.15;;;2.75;;
29550;SDS011;16488;52.396;10.696;2023-06-14T00:37:34;3.65;;;2.55;;
29550;SDS011;16488;52.396;10.696;2023-06-14T00:40:00;6.28;;;2.67;;
29550;SDS011;16488;52.396;10.696;2023-06-14T00:42:27;10.45;;;2.58;;
29550;SDS011;16488;52.396;10.696;2023-06-14T00:44:53;5.15;;;2.50;;
29550;SDS011;16488;52.396;10.696;2023-06-14T00:47:19;4.93;;;2.67;;
29550;SDS011;16488;52.396;10.696;2023-06-14T00:52:17;5.65;;;2.40;;
29550;SDS011;16488;52.396;10.696;2023-06-14T00:54:44;4.60;;;2.80;;
29550;SDS011;16488;52.396;10.696;2023-06-14T00:57:10;8.90;;;2.67;;
29550;SDS011;16488;52.396;10.696;2023-06-14T00:59:46;29.40;;;3.20;;
29550;SDS011;16488;52.396;10.696;2023-06-14T01:02:13;5.65;;;2.30;;
29550;SDS011;16488;52.396;10.696;2023-06-14T01:04:43;4.03;;;2.28;;
29550;SDS011;16488;52.396;10.696;2023-06-14T01:15:38;7.22;;;2.75;;
29550;SDS011;16488;52.396;10.696;2023-06-14T01:18:04;8.82;;;2.65;;
29550;SDS011;16488;52.396;10.696;2023-06-14T01:20:31;3.78;;;2.45;;
29550;SDS011;16488;52.396;10.696;2023-06-14T01:22:58;4.70;;;2.28;;
29550;SDS011;16488;52.396;10.696;2023-06-14T01:27:51;5.78;;;2.65;;
29550;SDS011;16488;52.396;10.696;2023-06-14T01:30:22;4.93;;;2.40;;
29550;SDS011;16488;52.396;10.696;2023-06-14T01:32:50;6.93;;;2.47;;
29550;SDS011;16488;52.396;10.696;2023-06-14T01:35:17;3.95;;;2.50;;
29550;SDS011;16488;52.396;10.696;2023-06-14T01:37:43;4.30;;;2.65;;
29550;SDS011;16488;52.396;10.696;2023-06-14T01:40:12;7.10;;;3.00;;
29550;SDS011;16488;52.396;10.696;2023-06-14T01:42:40;4.70;;;2.85;;
29550;SDS011;16488;52.396;10.696;2023-06-14T01:45:07;5.45;;;2.88;;
29550;SDS011;16488;52.396;10.696;2023-06-14T01:47:34;4.13;;;2.80;;
29550;SDS011;16488;52.396;10.696;2023-06-14T01:50:03;6.55;;;2.70;;
29550;SDS011;16488;52.396;10.696;2023-06-14T01:52:33;4.60;;;3.25;;
29550;SDS011;16488;52.396;10.696;2023-06-14T01:54:58;8.00;;;3.28;;
29550;SDS011;16488;52.396;10.696;2023-06-14T01:57:27;7.00;;;3.30;;
29550;SDS011;16488;52.396;10.696;2023-06-14T01:59:53;3.95;;;2.53;;
29550;SDS011;16488;52.396;10.696;2023-06-14T02:02:18;6.37;;;2.53;;
29550;SDS011;16488;52.396;10.696;2023-06-14T02:04:44;5.33;;;2.60;;
29550;SDS011;16488;52.396;10.696;2023-06-14T02:07:12;5.05;;;2.75;;
29550;SDS011;16488;52.396;10.696;2023-06-14T02:09:38;5.78;;;3.03;;
29550;SDS011;16488;52.396;10.696;2023-06-14T02:12:04;6.00;;;2.92;;
29550;SDS011;16488;52.396;10.696;2023-06-14T02:16:56;6.78;;;3.22;;
29550;SDS011;16488;52.396;10.696;2023-06-14T02:19:21;5.00;;;3.10;;
29550;SDS011;16488;52.396;10.696;2023-06-14T02:21:47;6.30;;;2.95;;
29550;SDS011;16488;52.396;10.696;2023-06-14T02:24:13;6.80;;;2.70;;
29550;SDS011;16488;52.396;10.696;2023-06-14T02:26:39;3.80;;;2.85;;
29550;SDS011;16488;52.396;10.696;2023-06-14T02:29:06;3.55;;;2.55;;
29550;SDS011;16488;52.396;10.696;2023-06-14T02:31:34;4.00;;;2.97;;
29550;SDS011;16488;52.396;10.696;2023-06-14T02:34:00;3.25;;;2.30;;
29550;SDS011;16488;52.396;10.696;2023-06-14T02:36:26;6.82;;;2.67;;
29550;SDS011;16488;52.396;10.696;2023-06-14T02:38:52;9.00;;;2.75;;
29550;SDS011;16488;52.396;10.696;2023-06-14T02:41:19;6.90;;;3.03;;
29550;SDS011;16488;52.396;10.696;2023-06-14T02:43:45;4.00;;;2.85;;
29550;SDS011;16488;52.396;10.696;2023-06-14T02:46:10;4.57;;;2.53;;
29550;SDS011;16488;52.396;10.696;2023-06-14T02:48:36;5.93;;;2.47;;
29550;SDS011;16488;52.396;10.696;2023-06-14T02:51:02;3.38;;;2.55;;
29550;SDS011;16488;52.396;10.696;2023-06-14T02:53:27;4.90;;;2.60;;
29550;SDS011;16488;52.396;10.696;2023-06-14T02:55:53;11.57;;;3.10;;
29550;SDS011;16488;52.396;10.696;2023-06-14T02:58:20;5.18;;;2.42;;
29550;SDS011;16488;52.396;10.696;2023-06-14T03:00:46;3.15;;;2.63;;
29550;SDS011;16488;52.396;10.696;2023-06-14T03:03:11;5.63;;;2.67;;
29550;SDS011;16488;52.396;10.696;2023-06-14T03:05:42;5.97;;;3.00;;
29550;SDS011;16488;52.396;10.696;2023-06-14T03:08:12;5.18;;;3.00;;
29550;SDS011;16488;52.396;10.696;2023-06-14T03:10:44;6.05;;;3.05;;
29550;SDS011;16488;52.396;10.696;2023-06-14T03:13:11;5.70;;;2.80;;
29550;SDS011;16488;52.396;10.696;2023-06-14T03:15:37;4.55;;;3.20;;
29550;SDS011;16488;52.396;10.696;2023-06-14T03:18:03;9.55;;;2.72;;
29550;SDS011;16488;52.396;10.696;2023-06-14T03:20:29;5.65;;;2.92;;
29550;SDS011;16488;52.396;10.696;2023-06-14T03:22:58;6.00;;;3.20;;
29550;SDS011;16488;52.396;10.696;2023-06-14T03:25:27;9.45;;;3.83;;
29550;SDS011;16488;52.396;10.696;2023-06-14T03:27:56;4.20;;;2.83;;
29550;SDS011;16488;52.396;10.696;2023-06-14T03:30:22;3.15;;;2.33;;
29550;SDS011;16488;52.396;10.696;2023-06-14T03:32:48;3.00;;;2.55;;
29550;SDS011;16488;52.396;10.696;2023-06-14T03:35:14;17.88;;;3.47;;
29550;SDS011;16488;52.396;10.696;2023-06-14T03:37:43;4.78;;;2.83;;
29550;SDS011;16488;52.396;10.696;2023-06-14T03:40:10;4.28;;;2.65;;
29550;SDS011;16488;52.396;10.696;2023-06-14T03:42:36;6.38;;;3.20;;
29550;SDS011;16488;52.396;10.696;2023-06-14T03:45:02;7.53;;;3.20;;
29550;SDS011;16488;52.396;10.696;2023-06-14T03:47:28;3.80;;;3.25;;
29550;SDS011;16488;52.396;10.696;2023-06-14T03:49:53;7.47;;;2.97;;
29550;SDS011;16488;52.396;10.696;2023-06-14T03:52:19;6.10;;;2.50;;
29550;SDS011;16488;52.396;10.696;2023-06-14T03:54:46;6.45;;;3.15;;
29550;SDS011;16488;52.396;10.696;2023-06-14T03:57:11;4.37;;;3.33;;
29550;SDS011;16488;52.396;10.696;2023-06-14T03:59:37;8.60;;;2.90;;
29550;SDS011;16488;52.396;10.696;2023-06-14T04:02:03;5.60;;;2.60;;
29550;SDS011;16488;52.396;10.696;2023-06-14T04:04:29;3.58;;;2.90;;
29550;SDS011;16488;52.396;10.696;2023-06-14T04:06:55;5.07;;;3.30;;
29550;SDS011;16488;52.396;10.696;2023-06-14T04:09:22;5.13;;;2.80;;
29550;SDS011;16488;52.396;10.696;2023-06-14T04:11:49;7.05;;;2.90;;
29550;SDS011;16488;52.396;10.696;2023-06-14T04:14:16;7.05;;;2.67;;
29550;SDS011;16488;52.396;10.696;2023-06-14T04:16:42;6.90;;;2.78;;
29550;SDS011;16488;52.396;10.696;2023-06-14T04:19:08;4.47;;;2.97;;
29550;SDS011;16488;52.396;10.696;2023-06-14T04:21:33;4.20;;;3.07;;
29550;SDS011;16488;52.396;10.696;2023-06-14T04:23:59;6.13;;;3.60;;
29550;SDS011;16488;52.396;10.696;2023-06-14T04:26:27;6.05;;;2.95;;
29550;SDS011;16488;52.396;10.696;2023-06-14T04:28:54;10.43;;;3.28;;
29550;SDS011;16488;52.396;10.696;2023-06-14T04:31:21;4.88;;;3.03;;
29550;SDS011;16488;52.396;10.696;2023-06-14T04:33:50;11.75;;;3.90;;
29550;SDS011;16488;52.396;10.696;2023-06-14T04:36:16;4.35;;;2.70;;
29550;SDS011;16488;52.396;10.696;2023-06-14T04:38:42;4.00;;;2.65;;
29550;SDS011;16488;52.396;10.696;2023-06-14T04:41:10;3.47;;;3.00;;
29550;SDS011;16488;52.396;10.696;2023-06-14T04:43:36;8.27;;;3.13;;
29550;SDS011;16488;52.396;10.696;2023-06-14T04:48:36;8.65;;;4.28;;
29550;SDS011;16488;52.396;10.696;2023-06-14T04:51:04;5.43;;;2.97;;
29550;SDS011;16488;52.396;10.696;2023-06-14T04:53:30;8.18;;;3.30;;
29550;SDS011;16488;52.396;10.696;2023-06-14T04:55:56;5.03;;;3.10;;
29550;SDS011;16488;52.396;10.696;2023-06-14T04:58:21;6.87;;;3.30;;
29550;SDS011;16488;52.396;10.696;2023-06-14T05:00:47;4.87;;;3.57;;
29550;SDS011;16488;52.396;10.696;2023-06-14T05:03:12;4.27;;;3.10;;
29550;SDS011;16488;52.396;10.696;2023-06-14T05:05:39;4.70;;;2.77;;
29550;SDS011;16488;52.396;10.696;2023-06-14T05:08:05;4.40;;;2.90;;
29550;SDS011;16488;52.396;10.696;2023-06-14T05:10:31;8.75;;;3.45;;
29550;SDS011;16488;52.396;10.696;2023-06-14T05:12:59;11.45;;;3.47;;
29550;SDS011;16488;52.396;10.696;2023-06-14T05:15:25;5.70;;;3.40;;
29550;SDS011;16488;52.396;10.696;2023-06-14T05:17:51;3.97;;;2.85;;
29550;SDS011;16488;52.396;10.696;2023-06-14T05:20:20;7.75;;;3.58;;
29550;SDS011;16488;52.396;10.696;2023-06-14T05:22:52;4.57;;;3.30;;
29550;SDS011;16488;52.396;10.696;2023-06-14T05:27:47;13.07;;;3.97;;
29550;SDS011;16488;52.396;10.696;2023-06-14T05:32:39;5.40;;;3.70;;
29550;SDS011;16488;52.396;10.696;2023-06-14T05:35:05;7.65;;;4.00;;
29550;SDS011;16488;52.396;10.696;2023-06-14T05:37:31;8.43;;;3.67;;
29550;SDS011;16488;52.396;10.696;2023-06-14T05:39:57;4.22;;;3.25;;
29550;SDS011;16488;52.396;10.696;2023-06-14T05:42:23;9.30;;;4.13;;
29550;SDS011;16488;52.396;10.696;2023-06-14T05:44:48;5.50;;;3.67;;
29550;SDS011;16488;52.396;10.696;2023-06-14T05:47:14;7.35;;;3.42;;
29550;SDS011;16488;52.396;10.696;2023-06-14T05:49:40;8.68;;;3.60;;
29550;SDS011;16488;52.396;10.696;2023-06-14T05:52:06;4.30;;;3.10;;
29550;SDS011;16488;52.396;10.696;2023-06-14T05:56:57;6.95;;;3.72;;
29550;SDS011;16488;52.396;10.696;2023-06-14T05:59:29;6.05;;;3.65;;
29550;SDS011;16488;52.396;10.696;2023-06-14T06:01:55;6.97;;;4.32;;
29550;SDS011;16488;52.396;10.696;2023-06-14T06:04:20;10.50;;;3.70;;
29550;SDS011;16488;52.396;10.696;2023-06-14T06:06:46;7.68;;;3.80;;
29550;SDS011;16488;52.396;10.696;2023-06-14T06:09:12;4.93;;;3.38;;
29550;SDS011;16488;52.396;10.696;2023-06-14T06:11:39;5.18;;;4.00;;
29550;SDS011;16488;52.396;10.696;2023-06-14T06:14:05;8.93;;;4.15;;
29550;SDS011;16488;52.396;10.696;2023-06-14T06:16:31;7.03;;;3.65;;
29550;SDS011;16488;52.396;10.696;2023-06-14T06:18:57;6.57;;;4.03;;
29550;SDS011;16488;52.396;10.696;2023-06-14T06:21:23;7.78;;;3.20;;
29550;SDS011;16488;52.396;10.696;2023-06-14T06:23:48;8.87;;;3.80;;
29550;SDS011;16488;52.396;10.696;2023-06-14T06:26:14;4.37;;;3.53;;
29550;SDS011;16488;52.396;10.696;2023-06-14T06:28:40;7.53;;;3.50;;
29550;SDS011;16488;52.396;10.696;2023-06-14T06:31:05;5.57;;;3.80;;
29550;SDS011;16488;52.396;10.696;2023-06-14T06:33:31;4.00;;;2.93;;
29550;SDS011;16488;52.396;10.696;2023-06-14T06:35:57;6.97;;;3.47;;
29550;SDS011;16488;52.396;10.696;2023-06-14T06:38:22;7.90;;;3.47;;
29550;SDS011;16488;52.396;10.696;2023-06-14T06:40:48;8.80;;;3.50;;
29550;SDS011;16488;52.396;10.696;2023-06-14T06:43:13;5.53;;;3.00;;
29550;SDS011;16488;52.396;10.696;2023-06-14T06:45:41;5.18;;;3.20;;
29550;SDS011;16488;52.396;10.696;2023-06-14T06:48:07;7.30;;;3.60;;
29550;SDS011;16488;52.396;10.696;2023-06-14T06:50:35;13.52;;;3.50;;
29550;SDS011;16488;52.396;10.696;2023-06-14T06:55:27;7.00;;;2.95;;
29550;SDS011;16488;52.396;10.696;2023-06-14T06:57:53;4.65;;;3.47;;
29550;SDS011;16488;52.396;10.696;2023-06-14T07:00:19;7.22;;;3.47;;
29550;SDS011;16488;52.396;10.696;2023-06-14T07:05:10;3.88;;;2.80;;
29550;SDS011;16488;52.396;10.696;2023-06-14T07:07:36;8.75;;;4.13;;
29550;SDS011;16488;52.396;10.696;2023-06-14T07:10:02;7.37;;;3.03;;
29550;SDS011;16488;52.396;10.696;2023-06-14T07:12:30;3.72;;;3.17;;
29550;SDS011;16488;52.396;10.696;2023-06-14T07:14:58;4.60;;;3.72;;
29550;SDS011;16488;52.396;10.696;2023-06-14T07:17:24;7.57;;;4.10;;
29550;SDS011;16488;52.396;10.696;2023-06-14T07:19:50;4.30;;;3.63;;
29550;SDS011;16488;52.396;10.696;2023-06-14T07:22:16;4.63;;;3.17;;
29550;SDS011;16488;52.396;10.696;2023-06-14T07:24:42;5.05;;;3.13;;
29550;SDS011;16488;52.396;10.696;2023-06-14T07:27:08;6.13;;;3.65;;
29550;SDS011;16488;52.396;10.696;2023-06-14T07:29:34;3.58;;;3.00;;
29550;SDS011;16488;52.396;10.696;2023-06-14T07:31:59;5.18;;;3.10;;
29550;SDS011;16488;52.396;10.696;2023-06-14T07:34:25;4.07;;;3.00;;
29550;SDS011;16488;52.396;10.696;2023-06-14T07:36:52;4.18;;;3.20;;
29550;SDS011;16488;52.396;10.696;2023-06-14T07:39:19;5.18;;;3.65;;
29550;SDS011;16488;52.396;10.696;2023-06-14T07:41:44;4.13;;;3.30;;
29550;SDS011;16488;52.396;10.696;2023-06-14T07:44:10;3.83;;;3.10;;
29550;SDS011;16488;52.396;10.696;2023-06-14T07:46:37;8.07;;;3.47;;
29550;SDS011;16488;52.396;10.696;2023-06-14T07:49:03;6.63;;;3.58;;
29550;SDS011;16488;52.396;10.696;2023-06-14T07:51:28;4.82;;;2.90;;
29550;SDS011;16488;52.396;10.696;2023-06-14T07:53:54;2.92;;;2.58;;
29550;SDS011;16488;52.396;10.696;2023-06-14T07:56:21;11.05;;;2.70;;
29550;SDS011;16488;52.396;10.696;2023-06-14T07:58:46;5.88;;;2.70;;
29550;SDS011;16488;52.396;10.696;2023-06-14T08:01:12;3.97;;;3.05;;
29550;SDS011;16488;52.396;10.696;2023-06-14T08:03:38;4.05;;;3.28;;
29550;SDS011;16488;52.396;10.696;2023-06-14T08:06:04;4.07;;;2.90;;
29550;SDS011;16488;52.396;10.696;2023-06-14T08:08:31;7.03;;;2.80;;
29550;SDS011;16488;52.396;10.696;2023-06-14T08:10:57;4.32;;;3.38;;
29550;SDS011;16488;52.396;10.696;2023-06-14T08:13:22;3.50;;;2.80;;
29550;SDS011;16488;52.396;10.696;2023-06-14T08:15:48;4.43;;;3.10;;
29550;SDS011;16488;52.396;10.696;2023-06-14T08:18:13;5.25;;;2.58;;
29550;SDS011;16488;52.396;10.696;2023-06-14T08:20:39;5.75;;;3.22;;
29550;SDS011;16488;52.396;10.696;2023-06-14T08:23:05;5.97;;;4.43;;
29550;SDS011;16488;52.396;10.696;2023-06-14T08:25:31;9.93;;;3.67;;
29550;SDS011;16488;52.396;10.696;2023-06-14T08:27:56;6.03;;;3.37;;
29550;SDS011;16488;52.396;10.696;2023-06-14T08:30:22;4.30;;;2.90;;
29550;SDS011;16488;52.396;10.696;2023-06-14T08:32:47;5.32;;;3.17;;
29550;SDS011;16488;52.396;10.696;2023-06-14T08:35:13;8.60;;;3.57;;
29550;SDS011;16488;52.396;10.696;2023-06-14T08:37:41;5.82;;;2.95;;
29550;SDS011;16488;52.396;10.696;2023-06-14T08:42:52;3.85;;;2.63;;
29550;SDS011;16488;52.396;10.696;2023-06-14T08:45:23;7.57;;;3.30;;
29550;SDS011;16488;52.396;10.696;2023-06-14T08:47:50;3.75;;;2.60;;
29550;SDS011;16488;52.396;10.696;2023-06-14T08:50:18;7.68;;;3.13;;
29550;SDS011;16488;52.396;10.696;2023-06-14T08:52:46;3.75;;;2.83;;
29550;SDS011;16488;52.396;10.696;2023-06-14T08:55:17;5.30;;;2.83;;
29550;SDS011;16488;52.396;10.696;2023-06-14T08:57:44;3.97;;;2.92;;
29550;SDS011;16488;52.396;10.696;2023-06-14T09:00:12;4.88;;;2.78;;
29550;SDS011;16488;52.396;10.696;2023-06-14T09:02:38;4.75;;;2.78;;
29550;SDS011;16488;52.396;10.696;2023-06-14T09:05:11;4.95;;;2.92;;
29550;SDS011;16488;52.396;10.696;2023-06-14T09:07:43;3.85;;;2.47;;
29550;SDS011;16488;52.396;10.696;2023-06-14T09:10:09;7.63;;;3.38;;
29550;SDS011;16488;52.396;10.696;2023-06-14T09:12:36;5.28;;;2.90;;
29550;SDS011;16488;52.396;10.696;2023-06-14T09:15:03;5.35;;;2.70;;
29550;SDS011;16488;52.396;10.696;2023-06-14T09:17:37;6.13;;;2.88;;
29550;SDS011;16488;52.396;10.696;2023-06-14T09:20:07;6.13;;;2.55;;
29550;SDS011;16488;52.396;10.696;2023-06-14T09:22:35;4.05;;;2.88;;
29550;SDS011;16488;52.396;10.696;2023-06-14T09:25:05;2.90;;;2.42;;
29550;SDS011;16488;52.396;10.696;2023-06-14T09:27:31;13.23;;;2.85;;
29550;SDS011;16488;52.396;10.696;2023-06-14T09:29:57;3.63;;;2.47;;
29550;SDS011;16488;52.396;10.696;2023-06-14T09:32:23;5.13;;;3.20;;
29550;SDS011;16488;52.396;10.696;2023-06-14T09:37:31;9.02;;;3.05;;
29550;SDS011;16488;52.396;10.696;2023-06-14T09:39:57;5.35;;;2.78;;
29550;SDS011;16488;52.396;10.696;2023-06-14T09:42:23;6.47;;;2.97;;
29550;SDS011;16488;52.396;10.696;2023-06-14T09:44:53;7.38;;;3.42;;
29550;SDS011;16488;52.396;10.696;2023-06-14T09:47:20;6.75;;;2.97;;
29550;SDS011;16488;52.396;10.696;2023-06-14T09:49:47;6.15;;;3.55;;
29550;SDS011;16488;52.396;10.696;2023-06-14T09:52:17;8.02;;;2.92;;
29550;SDS011;16488;52.396;10.696;2023-06-14T09:54:44;10.55;;;3.28;;
29550;SDS011;16488;52.396;10.696;2023-06-14T09:57:12;4.45;;;2.92;;
29550;SDS011;16488;52.396;10.696;2023-06-14T09:59:42;5.82;;;3.50;;
29550;SDS011;16488;52.396;10.696;2023-06-14T10:02:14;11.82;;;3.35;;
29550;SDS011;16488;52.396;10.696;2023-06-14T10:05:02;4.00;;;3.03;;
29550;SDS011;16488;52.396;10.696;2023-06-14T10:08:19;7.55;;;3.75;;
29550;SDS011;16488;52.396;10.696;2023-06-14T10:10:28;8.60;;;3.35;;
29550;SDS011;16488;52.396;10.696;2023-06-14T10:12:54;12.60;;;4.53;;
29550;SDS011;16488;52.396;10.696;2023-06-14T10:15:54;6.20;;;3.97;;
29550;SDS011;16488;52.396;10.696;2023-06-14T10:23:37;14.65;;;4.82;;
29550;SDS011;16488;52.396;10.696;2023-06-14T10:26:07;9.93;;;3.80;;
29550;SDS011;16488;52.396;10.696;2023-06-14T10:28:32;6.00;;;3.33;;
29550;SDS011;16488;52.396;10.696;2023-06-14T10:31:11;12.63;;;4.38;;
29550;SDS011;16488;52.396;10.696;2023-06-14T10:33:55;11.13;;;3.88;;
29550;SDS011;16488;52.396;10.696;2023-06-14T10:39:00;8.83;;;3.50;;
29550;SDS011;16488;52.396;10.696;2023-06-14T10:41:32;8.18;;;4.00;;
29550;SDS011;16488;52.396;10.696;2023-06-14T10:44:10;7.10;;;3.80;;
29550;SDS011;16488;52.396;10.696;2023-06-14T10:47:00;6.63;;;4.05;;
29550;SDS011;16488;52.396;10.696;2023-06-14T10:49:44;6.45;;;3.33;;
29550;SDS011;16488;52.396;10.696;2023-06-14T10:52:14;7.80;;;4.35;;
29550;SDS011;16488;52.396;10.696;2023-06-14T10:57:50;6.32;;;3.70;;
29550;SDS011;16488;52.396;10.696;2023-06-14T11:00:21;7.28;;;4.10;;
29550;SDS011;16488;52.396;10.696;2023-06-14T11:05:43;9.90;;;4.00;;
29550;SDS011;16488;52.396;10.696;2023-06-14T11:11:05;8.70;;;3.88;;
29550;SDS011;16488;52.396;10.696;2023-06-14T11:13:32;16.55;;;3.95;;
29550;SDS011;16488;52.396;10.696;2023-06-14T11:15:57;9.32;;;4.15;;
29550;SDS011;16488;52.396;10.696;2023-06-14T11:18:24;8.57;;;3.95;;
29550;SDS011;16488;52.396;10.696;2023-06-14T11:23:16;10.60;;;4.15;;
29550;SDS011;16488;52.396;10.696;2023-06-14T11:25:42;11.20;;;4.15;;
29550;SDS011;16488;52.396;10.696;2023-06-14T11:28:08;7.82;;;4.15;;
29550;SDS011;16488;52.396;10.696;2023-06-14T11:30:33;12.27;;;4.38;;
29550;SDS011;16488;52.396;10.696;2023-06-14T11:32:59;10.20;;;4.22;;
29550;SDS011;16488;52.396;10.696;2023-06-14T11:35:25;8.05;;;4.13;;
29550;SDS011;16488;52.396;10.696;2023-06-14T11:37:55;9.45;;;3.38;;
29550;SDS011;16488;52.396;10.696;2023-06-14T11:40:23;13.02;;;3.53;;
29550;SDS011;16488;52.396;10.696;2023-06-14T11:42:49;20.85;;;4.43;;
29550;SDS011;16488;52.396;10.696;2023-06-14T11:45:22;9.52;;;3.95;;
29550;SDS011;16488;52.396;10.696;2023-06-14T11:47:48;11.30;;;4.00;;
29550;SDS011;16488;52.396;10.696;2023-06-14T11:50:13;10.15;;;3.42;;
29550;SDS011;16488;52.396;10.696;2023-06-14T11:52:39;6.03;;;3.50;;
29550;SDS011;16488;52.396;10.696;2023-06-14T11:55:05;10.85;;;4.05;;
29550;SDS011;16488;52.396;10.696;2023-06-14T12:00:03;8.55;;;4.35;;
29550;SDS011;16488;52.396;10.696;2023-06-14T12:02:40;9.20;;;4.03;;
29550;SDS011;16488;52.396;10.696;2023-06-14T12:05:06;7.10;;;4.30;;
29550;SDS011;16488;52.396;10.696;2023-06-14T12:07:36;12.70;;;3.55;;
29550;SDS011;16488;52.396;10.696;2023-06-14T12:10:04;6.15;;;3.88;;
29550;SDS011;16488;52.396;10.696;2023-06-14T12:12:35;9.73;;;3.80;;
29550;SDS011;16488;52.396;10.696;2023-06-14T12:15:05;8.57;;;4.15;;
29550;SDS011;16488;52.396;10.696;2023-06-14T12:17:35;7.85;;;4.15;;
29550;SDS011;16488;52.396;10.696;2023-06-14T12:20:07;8.82;;;4.20;;
29550;SDS011;16488;52.396;10.696;2023-06-14T12:22:35;13.88;;;4.35;;
29550;SDS011;16488;52.396;10.696;2023-06-14T12:27:28;10.75;;;3.85;;
29550;SDS011;16488;52.396;10.696;2023-06-14T12:30:00;8.90;;;3.70;;
29550;SDS011;16488;52.396;10.696;2023-06-14T12:32:27;13.77;;;3.88;;
29550;SDS011;16488;52.396;10.696;2023-06-14T12:34:53;13.02;;;3.97;;
29550;SDS011;16488;52.396;10.696;2023-06-14T12:37:19;12.18;;;4.40;;
29550;SDS011;16488;52.396;10.696;2023-06-14T12:39:45;9.15;;;3.80;;
29550;SDS011;16488;52.396;10.696;2023-06-14T12:42:10;9.10;;;3.55;;
29550;SDS011;16488;52.396;10.696;2023-06-14T12:44:36;10.50;;;3.90;;
29550;SDS011;16488;52.396;10.696;2023-06-14T12:47:06;7.07;;;3.53;;
29550;SDS011;16488;52.396;10.696;2023-06-14T12:49:32;5.68;;;3.63;;
29550;SDS011;16488;52.396;10.696;2023-06-14T12:51:58;10.82;;;3.40;;
29550;SDS011;16488;52.396;10.696;2023-06-14T12:54:24;9.93;;;3.97;;
29550;SDS011;16488;52.396;10.696;2023-06-14T12:56:52;4.28;;;3.50;;
29550;SDS011;16488;52.396;10.696;2023-06-14T12:59:20;11.63;;;3.53;;
29550;SDS011;16488;52.396;10.696;2023-06-14T13:01:45;4.95;;;3.60;;
29550;SDS011;16488;52.396;10.696;2023-06-14T13:04:14;10.25;;;3.47;;
29550;SDS011;16488;52.396;10.696;2023-06-14T13:06:40;7.90;;;3.53;;
29550;SDS011;16488;52.396;10.696;2023-06-14T13:09:05;18.13;;;3.90;;
29550;SDS011;16488;52.396;10.696;2023-06-14T13:11:31;8.93;;;3.67;;
29550;SDS011;16488;52.396;10.696;2023-06-14T13:13:57;5.78;;;3.50;;
29550;SDS011;16488;52.396;10.696;2023-06-14T13:16:22;5.22;;;2.95;;
29550;SDS011;16488;52.396;10.696;2023-06-14T13:18:48;9.90;;;3.72;;
29550;SDS011;16488;52.396;10.696;2023-06-14T13:21:13;11.88;;;4.32;;
29550;SDS011;16488;52.396;10.696;2023-06-14T13:23:40;7.88;;;3.53;;
29550;SDS011;16488;52.396;10.696;2023-06-14T13:26:05;11.07;;;3.40;;
29550;SDS011;16488;52.396;10.696;2023-06-14T13:28:31;7.50;;;4.22;;
29550;SDS011;16488;52.396;10.696;2023-06-14T13:30:57;11.15;;;4.30;;
29550;SDS011;16488;52.396;10.696;2023-06-14T13:33:23;12.93;;;3.77;;
29550;SDS011;16488;52.396;10.696;2023-06-14T13:35:49;14.30;;;3.88;;
29550;SDS011;16488;52.396;10.696;2023-06-14T13:38:16;8.95;;;3.85;;
29550;SDS011;16488;52.396;10.696;2023-06-14T13:40:42;10.20;;;4.05;;
29550;SDS011;16488;52.396;10.696;2023-06-14T13:43:07;10.90;;;3.97;;
29550;SDS011;16488;52.396;10.696;2023-06-14T13:45:33;8.50;;;3.67;;
29550;SDS011;16488;52.396;10.696;2023-06-14T13:48:00;11.10;;;3.42;;
29550;SDS011;16488;52.396;10.696;2023-06-14T13:50:25;11.80;;;3.58;;
29550;SDS011;16488;52.396;10.696;2023-06-14T13:52:51;7.57;;;4.05;;
29550;SDS011;16488;52.396;10.696;2023-06-14T13:55:16;10.37;;;4.00;;
29550;SDS011;16488;52.396;10.696;2023-06-14T13:57:42;7.65;;;3.45;;
29550;SDS011;16488;52.396;10.696;2023-06-14T14:00:08;8.25;;;3.92;;
29550;SDS011;16488;52.396;10.696;2023-06-14T14:02:34;9.45;;;3.72;;
29550;SDS011;16488;52.396;10.696;2023-06-14T14:05:00;5.43;;;3.50;;
29550;SDS011;16488;52.396;10.696;2023-06-14T14:07:25;9.63;;;4.18;;
29550;SDS011;16488;52.396;10.696;2023-06-14T14:09:51;15.50;;;3.70;;
29550;SDS011;16488;52.396;10.696;2023-06-14T14:12:18;9.38;;;4.43;;
29550;SDS011;16488;52.396;10.696;2023-06-14T14:14:44;5.50;;;3.65;;
29550;SDS011;16488;52.396;10.696;2023-06-14T14:17:09;6.95;;;3.75;;
29550;SDS011;16488;52.396;10.696;2023-06-14T14:19:35;8.68;;;3.83;;
29550;SDS011;16488;52.396;10.696;2023-06-14T14:22:01;6.30;;;3.33;;
29550;SDS011;16488;52.396;10.696;2023-06-14T14:24:27;9.10;;;4.03;;
29550;SDS011;16488;52.396;10.696;2023-06-14T14:26:52;10.13;;;3.23;;
29550;SDS011;16488;52.396;10.696;2023-06-14T14:29:19;7.88;;;3.45;;
29550;SDS011;16488;52.396;10.696;2023-06-14T14:31:46;6.80;;;3.47;;
29550;SDS011;16488;52.396;10.696;2023-06-14T14:34:11;7.47;;;3.33;;
29550;SDS011;16488;52.396;10.696;2023-06-14T14:36:37;8.85;;;3.78;;
29550;SDS011;16488;52.396;10.696;2023-06-14T14:39:07;6.40;;;3.92;;
29550;SDS011;16488;52.396;10.696;2023-06-14T14:43:59;7.30;;;3.60;;
29550;SDS011;16488;52.396;10.696;2023-06-14T14:46:25;8.45;;;3.72;;
29550;SDS011;16488;52.396;10.696;2023-06-14T14:48:52;6.80;;;3.70;;
29550;SDS011;16488;52.396;10.696;2023-06-14T14:51:18;14.67;;;4.17;;
29550;SDS011;16488;52.396;10.696;2023-06-14T14:53:43;5.57;;;3.67;;
29550;SDS011;16488;52.396;10.696;2023-06-14T14:56:10;9.45;;;3.80;;
29550;SDS011;16488;52.396;10.696;2023-06-14T14:58:37;12.68;;;4.32;;
29550;SDS011;16488;52.396;10.696;2023-06-14T15:01:02;5.57;;;3.60;;
29550;SDS011;16488;52.396;10.696;2023-06-14T15:03:30;10.80;;;3.92;;
29550;SDS011;16488;52.396;10.696;2023-06-14T15:05:56;9.30;;;3.85;;
29550;SDS011;16488;52.396;10.696;2023-06-14T15:08:21;6.90;;;3.63;;
29550;SDS011;16488;52.396;10.696;2023-06-14T15:10:47;10.80;;;4.07;;
29550;SDS011;16488;52.396;10.696;2023-06-14T15:13:13;7.30;;;3.42;;
29550;SDS011;16488;52.396;10.696;2023-06-14T15:15:39;7.47;;;3.95;;
29550;SDS011;16488;52.396;10.696;2023-06-14T15:18:04;10.15;;;3.65;;
29550;SDS011;16488;52.396;10.696;2023-06-14T15:20:30;12.55;;;3.88;;
29550;SDS011;16488;52.396;10.696;2023-06-14T15:22:56;6.07;;;3.13;;
29550;SDS011;16488;52.396;10.696;2023-06-14T15:25:24;7.07;;;3.95;;
29550;SDS011;16488;52.396;10.696;2023-06-14T15:27:51;9.27;;;3.67;;
29550;SDS011;16488;52.396;10.696;2023-06-14T15:30:16;7.30;;;3.65;;
29550;SDS011;16488;52.396;10.696;2023-06-14T15:32:42;13.15;;;4.53;;
29550;SDS011;16488;52.396;10.696;2023-06-14T15:35:08;7.00;;;3.53;;
29550;SDS011;16488;52.396;10.696;2023-06-14T15:37:33;10.27;;;3.35;;
29550;SDS011;16488;52.396;10.696;2023-06-14T15:39:59;8.95;;;3.72;;